Portada
METAR-TAF:

METAR-TAF

Aeroports :

Aeroport de Sabadell

Sabadell, Espanya

latitud: 41-31N, longitud: 002-06E, altitud: 250 m

Observació

L'informe es va fer fa 48 minuts, a les 16:30 UTC
Vent 6 kt del Sud, variant entre Sud-Est i Oest/Sud-Oest
Temperatura 25°C
Humitat 41%
Pressió 1015 hPa
Visibilitat 10 km o més
sense núvols per sota de 1500 mi sense presència de cumulonimbus.

METAR: LELL 081630Z 19006KT 140V250 CAVOK 25/11 Q1015

Hora: 19:18 (17:18 UTC)

Pronòstic

L'informe es va fer fa 3 hores i 18 minuts, a les 14:00 UTC
Pronòstic vàlid del 08 a les 15 UTC al 09 a les 15 UTC
Vent 10 kt del Sud/Sud-Oest
Visibilitat 10 km o més
Escasses núvols a una alçada de 4000 ft
Evolucionant progressivament
l' 08 a les 18 UTC al 08 a les 20 UTC
Vent 3 kt amb direcció variable
Evolucionant progressivament
l' 09 a les 05 UTC al 09 a les 07 UTC
Vent 10 kt del Est

TAF: LELL 081400Z 0815/0915 20010KT 9999 FEW040 TX24/0913Z TN12/0905Z BECMG 0818/0820 VRB03KT BECMG 0905/0907 08010KT

Observacions i pronòstics meteorològics de més de 4000 aeroports (METAR i TAF).

Les estacions disponibles són els punts grocs i vermells al mapa.

Posi el ratolí al punt desitjat per veure el nom de l'estació.

Feu clic per veure les observacions i els pronòstics meteorològics.

Per canviar el mapa: feu clic els botons verds amb una creu de color negre per apropar; al botó verd amb un guió per allunyar la imatge; o en les fletxes verdes per a mapes adjacents.


METAR-TAF: